createdAt,value
2017-11-15T00:02:05.461Z,8.10
2017-11-15T00:04:37.338Z,8.10
2017-11-15T00:07:07.182Z,8.10
2017-11-15T00:09:35.718Z,8.10
2017-11-15T00:12:07.351Z,8.00
2017-11-15T00:14:35.942Z,8.10
2017-11-15T00:17:03.417Z,8.00
2017-11-15T00:19:31.014Z,8.00
2017-11-15T00:21:59.403Z,7.90
2017-11-15T00:24:27.731Z,7.80
2017-11-15T00:26:55.201Z,7.80
2017-11-15T00:29:22.791Z,7.80
2017-11-15T00:31:51.139Z,7.90
2017-11-15T00:34:18.621Z,7.90
2017-11-15T00:36:46.119Z,7.90
2017-11-15T00:39:14.047Z,7.90
2017-11-15T00:41:41.658Z,7.80
2017-11-15T00:44:09.226Z,7.80
2017-11-15T00:46:36.831Z,7.80
2017-11-15T00:49:05.263Z,7.80
2017-11-15T00:51:32.747Z,7.70
2017-11-15T00:54:00.268Z,7.80
2017-11-15T00:56:27.972Z,7.70
2017-11-15T00:58:55.589Z,7.70
2017-11-15T01:01:23.097Z,7.70
2017-11-15T01:03:50.554Z,7.80
2017-11-15T01:06:18.054Z,7.80
2017-11-15T01:08:45.674Z,7.80
2017-11-15T01:11:13.942Z,7.80
2017-11-15T01:13:41.418Z,7.90
2017-11-15T01:16:09.810Z,7.90
2017-11-15T01:18:37.292Z,7.90
2017-11-15T01:21:04.926Z,7.90
2017-11-15T01:23:33.233Z,7.90
2017-11-15T01:26:00.693Z,7.90
2017-11-15T01:28:28.774Z,7.90
2017-11-15T01:30:56.262Z,7.90
2017-11-15T01:33:23.782Z,7.90
2017-11-15T01:35:51.261Z,7.90
2017-11-15T01:38:19.013Z,7.80
2017-11-15T01:40:46.531Z,7.90
2017-11-15T01:43:14.027Z,8.00
2017-11-15T01:45:41.549Z,8.00
2017-11-15T01:48:09.018Z,8.00
2017-11-15T01:50:36.547Z,8.00
2017-11-15T01:53:04.775Z,8.00
2017-11-15T01:55:32.271Z,8.00
2017-11-15T01:58:00.529Z,8.00
2017-11-15T02:00:39.793Z,8.00
2017-11-15T02:03:07.261Z,8.00
2017-11-15T02:05:35.313Z,7.80
2017-11-15T02:08:03.549Z,7.80
2017-11-15T02:10:31.540Z,7.80
2017-11-15T02:12:59.019Z,7.80
2017-11-15T02:15:27.362Z,7.80
2017-11-15T02:17:54.866Z,7.80
2017-11-15T02:20:22.337Z,7.80
2017-11-15T02:22:49.823Z,7.80
2017-11-15T02:25:17.280Z,8.00
2017-11-15T02:27:44.762Z,8.10
2017-11-15T02:30:12.230Z,8.10
2017-11-15T02:32:40.490Z,8.10
2017-11-15T02:35:07.962Z,8.10
2017-11-15T02:37:36.242Z,8.00
2017-11-15T02:40:04.665Z,8.10
2017-11-15T02:42:32.197Z,8.00
2017-11-15T02:44:59.681Z,8.10
2017-11-15T02:47:27.147Z,8.00
2017-11-15T02:49:54.623Z,8.00
2017-11-15T02:52:22.082Z,8.00
2017-11-15T02:54:49.566Z,8.10
2017-11-15T02:57:17.792Z,8.10
2017-11-15T02:59:45.291Z,8.10
2017-11-15T03:02:13.583Z,8.20
2017-11-15T03:04:41.980Z,8.00
2017-11-15T03:07:09.452Z,8.00
2017-11-15T03:09:37.065Z,7.90
2017-11-15T03:12:05.430Z,7.70
2017-11-15T03:14:32.946Z,7.70
2017-11-15T03:17:00.453Z,7.70
2017-11-15T03:19:29.223Z,7.60
2017-11-15T03:21:56.702Z,7.60
2017-11-15T03:24:24.964Z,7.70
2017-11-15T03:26:52.497Z,7.60
2017-11-15T03:29:20.066Z,7.70
2017-11-15T03:31:47.531Z,7.70
2017-11-15T03:34:15.018Z,7.60
2017-11-15T03:36:43.246Z,7.60
2017-11-15T03:39:10.730Z,7.60
2017-11-15T03:41:38.353Z,7.70
2017-11-15T03:44:05.842Z,7.70
2017-11-15T03:46:33.360Z,7.70
2017-11-15T03:49:01.172Z,7.70
2017-11-15T03:51:28.669Z,7.60
2017-11-15T03:53:56.138Z,7.70
2017-11-15T03:56:23.615Z,7.80
2017-11-15T03:58:51.100Z,7.70
2017-11-15T04:01:18.715Z,7.80
2017-11-15T04:03:46.322Z,7.80
2017-11-15T04:06:14.699Z,7.70
2017-11-15T04:08:42.204Z,7.70
2017-11-15T04:11:09.721Z,7.70
2017-11-15T04:13:38.009Z,7.90
2017-11-15T04:16:06.286Z,7.80
2017-11-15T04:18:33.827Z,7.80
2017-11-15T04:21:02.923Z,7.60
2017-11-15T04:23:30.386Z,7.60
2017-11-15T04:25:58.784Z,7.70
2017-11-15T04:28:26.413Z,7.60
2017-11-15T04:30:53.905Z,7.70
2017-11-15T04:33:21.376Z,7.90
2017-11-15T04:35:48.861Z,8.00
2017-11-15T04:38:16.551Z,8.10
2017-11-15T04:40:44.773Z,7.90
2017-11-15T04:43:12.241Z,7.90
2017-11-15T04:45:39.709Z,7.90
2017-11-15T04:48:07.186Z,7.80
2017-11-15T04:50:34.780Z,7.80
2017-11-15T04:53:02.262Z,7.80
2017-11-15T04:55:29.880Z,7.90
2017-11-15T04:57:58.221Z,7.70
2017-11-15T05:00:25.694Z,7.70
2017-11-15T05:02:53.181Z,7.70
2017-11-15T05:05:21.451Z,7.70
2017-11-15T05:07:50.126Z,7.70
2017-11-15T05:10:18.433Z,7.80
2017-11-15T05:12:45.898Z,7.80
2017-11-15T05:15:13.368Z,7.70
2017-11-15T05:17:40.947Z,7.70
2017-11-15T05:20:08.501Z,7.60
2017-11-15T05:22:36.801Z,7.60
2017-11-15T05:25:04.277Z,7.60
2017-11-15T05:27:32.539Z,7.60
2017-11-15T05:30:00.015Z,7.60
2017-11-15T05:32:28.243Z,7.60
2017-11-15T05:34:55.733Z,7.60
2017-11-15T05:37:23.975Z,7.50
2017-11-15T05:39:51.505Z,7.50
2017-11-15T05:42:18.978Z,7.60
2017-11-15T05:44:47.053Z,7.70
2017-11-15T05:47:14.825Z,7.70
2017-11-15T05:49:42.287Z,7.70
2017-11-15T05:52:09.856Z,7.70
2017-11-15T05:54:37.353Z,7.80
2017-11-15T05:57:05.569Z,8.00
2017-11-15T05:59:33.042Z,7.90
2017-11-15T06:02:00.624Z,7.90
2017-11-15T06:04:28.115Z,7.80
2017-11-15T06:06:55.590Z,7.80
2017-11-15T06:09:23.157Z,7.80
2017-11-15T06:11:50.667Z,7.70
2017-11-15T06:14:19.001Z,7.70
2017-11-15T06:16:46.494Z,7.70
2017-11-15T06:19:13.938Z,7.60
2017-11-15T06:21:41.438Z,7.60
2017-11-15T06:24:08.873Z,7.70
2017-11-15T06:26:37.126Z,7.60
2017-11-15T06:29:05.361Z,7.60
2017-11-15T06:31:32.893Z,7.60
2017-11-15T06:34:01.151Z,7.60
2017-11-15T06:36:28.665Z,7.60
2017-11-15T06:38:56.843Z,7.60
2017-11-15T06:41:24.297Z,7.60
2017-11-15T06:43:51.813Z,7.60
2017-11-15T06:46:19.407Z,7.60
2017-11-15T06:48:47.002Z,7.60
2017-11-15T06:51:14.671Z,7.60
2017-11-15T06:53:43.202Z,7.50
2017-11-15T06:56:10.666Z,7.50
2017-11-15T06:58:38.178Z,7.50
2017-11-15T07:01:06.520Z,7.50
2017-11-15T07:03:34.262Z,7.50
2017-11-15T07:06:01.832Z,7.60
2017-11-15T07:08:29.307Z,7.50
2017-11-15T07:10:56.995Z,7.60
2017-11-15T07:13:25.234Z,7.60
2017-11-15T07:15:52.706Z,7.60
2017-11-15T07:18:20.955Z,7.60
2017-11-15T07:20:48.413Z,7.60
2017-11-15T07:23:15.891Z,7.60
2017-11-15T07:25:43.558Z,7.60
2017-11-15T07:28:11.048Z,7.60
2017-11-15T07:30:38.602Z,7.60
2017-11-15T07:33:06.221Z,7.60
2017-11-15T07:35:33.687Z,7.70
2017-11-15T07:38:01.666Z,7.70
2017-11-15T07:40:29.289Z,7.80
2017-11-15T07:42:56.805Z,7.90
2017-11-15T07:45:25.121Z,8.10
2017-11-15T07:47:52.607Z,8.10
2017-11-15T07:50:20.365Z,8.10
2017-11-15T07:52:47.835Z,8.10
2017-11-15T07:55:16.082Z,8.00
2017-11-15T07:57:43.555Z,8.00
2017-11-15T08:00:11.069Z,8.10
2017-11-15T08:02:38.539Z,8.00
2017-11-15T08:05:06.106Z,8.10
2017-11-15T08:07:33.585Z,8.10
2017-11-15T08:10:01.056Z,8.10
2017-11-15T08:12:28.567Z,8.00
2017-11-15T08:14:56.152Z,8.00
2017-11-15T08:17:23.839Z,8.10
2017-11-15T08:19:52.093Z,8.00
2017-11-15T08:22:19.630Z,7.90
2017-11-15T08:24:47.127Z,8.00
2017-11-15T08:27:14.599Z,8.00
2017-11-15T08:29:42.855Z,8.00
2017-11-15T08:32:10.425Z,8.00
2017-11-15T08:34:37.965Z,8.00
2017-11-15T08:37:05.599Z,8.00
2017-11-15T08:39:33.130Z,8.00
2017-11-15T08:42:00.655Z,8.10
2017-11-15T08:44:28.909Z,8.00
2017-11-15T08:46:56.394Z,8.00
2017-11-15T08:49:24.665Z,7.90
2017-11-15T08:51:52.172Z,7.90
2017-11-15T08:54:19.643Z,8.00
2017-11-15T08:59:21.267Z,8.00
2017-11-15T09:01:49.504Z,7.90
2017-11-15T09:04:16.999Z,7.90
2017-11-15T09:06:44.492Z,8.00
2017-11-15T09:09:11.959Z,8.00
2017-11-15T09:11:39.430Z,8.00
2017-11-15T09:14:07.026Z,8.10
2017-11-15T09:16:35.523Z,8.20
2017-11-15T09:19:03.111Z,8.10
2017-11-15T09:21:30.589Z,8.10
2017-11-15T09:23:58.068Z,8.10
2017-11-15T09:26:25.546Z,8.20
2017-11-15T09:28:53.029Z,8.20
2017-11-15T09:31:20.545Z,8.30
2017-11-15T09:33:48.773Z,8.20
2017-11-15T09:36:16.372Z,8.20
2017-11-15T09:38:43.904Z,8.30
2017-11-15T09:41:11.374Z,8.30
2017-11-15T09:43:38.847Z,8.30
2017-11-15T09:46:06.458Z,8.40
2017-11-15T09:48:33.930Z,8.30
2017-11-15T09:51:01.469Z,8.30
2017-11-15T09:53:28.938Z,8.30
2017-11-15T09:55:56.406Z,8.30
2017-11-15T09:58:24.066Z,8.30
2017-11-15T10:00:51.544Z,8.30
2017-11-15T10:03:19.026Z,8.20
2017-11-15T10:05:47.274Z,8.30
2017-11-15T10:08:14.754Z,8.30
2017-11-15T10:10:42.984Z,8.40
2017-11-15T10:13:10.492Z,8.40
2017-11-15T10:15:38.007Z,8.40
2017-11-15T10:18:05.474Z,8.40
2017-11-15T10:20:33.645Z,8.40
2017-11-15T10:23:01.139Z,8.50
2017-11-15T10:25:29.391Z,8.40
2017-11-15T10:27:57.067Z,8.40
2017-11-15T10:30:25.372Z,8.60
2017-11-15T10:32:52.854Z,8.50
2017-11-15T10:35:21.821Z,8.60
2017-11-15T10:37:49.283Z,8.50
2017-11-15T10:40:16.759Z,8.50
2017-11-15T10:42:44.441Z,8.50
2017-11-15T10:45:11.903Z,8.60
2017-11-15T10:47:39.477Z,8.60
2017-11-15T10:50:08.000Z,8.50
2017-11-15T10:52:35.459Z,8.50
2017-11-15T10:55:02.938Z,8.50
2017-11-15T10:57:30.423Z,8.50
2017-11-15T10:59:58.503Z,8.60
2017-11-15T11:02:26.810Z,8.70
2017-11-15T11:04:54.298Z,8.70
2017-11-15T11:07:21.813Z,8.70
2017-11-15T11:09:49.349Z,8.80
2017-11-15T11:12:17.596Z,8.70
2017-11-15T11:14:45.048Z,8.70
2017-11-15T11:17:12.535Z,8.70
2017-11-15T11:19:40.072Z,8.80
2017-11-15T11:22:07.545Z,8.90
2017-11-15T11:24:37.977Z,8.90
2017-11-15T11:27:06.212Z,8.90
2017-11-15T11:29:33.757Z,8.90
2017-11-15T11:32:01.213Z,8.90
2017-11-15T11:34:28.686Z,8.70
2017-11-15T11:36:56.207Z,8.70
2017-11-15T11:39:23.814Z,8.80
2017-11-15T11:41:51.424Z,8.90
2017-11-15T11:44:20.149Z,8.80
2017-11-15T11:46:47.690Z,8.70
2017-11-15T11:49:15.160Z,8.80
2017-11-15T11:51:42.689Z,8.90
2017-11-15T11:54:10.212Z,8.80
2017-11-15T11:56:37.856Z,8.80
2017-11-15T11:59:05.393Z,8.80
2017-11-15T12:01:33.096Z,8.80
2017-11-15T12:04:00.628Z,8.70
2017-11-15T12:06:28.234Z,8.80
2017-11-15T12:08:56.478Z,8.70
2017-11-15T12:11:24.145Z,8.70
2017-11-15T12:13:51.687Z,8.80
2017-11-15T12:16:19.173Z,8.70
2017-11-15T12:18:46.714Z,8.90
2017-11-15T12:21:14.228Z,8.90
2017-11-15T12:23:41.720Z,8.90
2017-11-15T12:26:09.204Z,8.90
2017-11-15T12:28:36.674Z,9.00
2017-11-15T12:31:04.936Z,9.00
2017-11-15T12:33:32.411Z,9.00
2017-11-15T12:36:00.651Z,9.00
2017-11-15T12:38:28.143Z,9.00
2017-11-15T12:40:56.483Z,8.90
2017-11-15T12:43:23.974Z,8.90
2017-11-15T12:45:52.459Z,8.80
2017-11-15T12:48:20.701Z,8.70
2017-11-15T12:50:48.272Z,8.70
2017-11-15T12:53:15.757Z,8.70
2017-11-15T12:55:44.073Z,8.70
2017-11-15T12:58:11.623Z,8.60
2017-11-15T13:00:39.143Z,8.60
2017-11-15T13:03:07.643Z,8.70
2017-11-15T13:05:35.268Z,8.70
2017-11-15T13:08:04.250Z,8.70
2017-11-15T13:10:31.737Z,8.70
2017-11-15T13:12:59.986Z,8.80
2017-11-15T13:15:28.286Z,8.80
2017-11-15T13:17:56.535Z,8.80
2017-11-15T13:20:24.000Z,8.80
2017-11-15T13:22:51.639Z,8.90
2017-11-15T13:25:19.103Z,8.90
2017-11-15T13:27:46.565Z,8.90
2017-11-15T13:30:14.082Z,8.90
2017-11-15T13:32:41.623Z,8.90
2017-11-15T13:35:09.104Z,8.90
2017-11-15T13:37:36.584Z,8.80
2017-11-15T13:40:04.114Z,8.90
2017-11-15T13:42:31.615Z,8.90
2017-11-15T13:44:59.149Z,8.80
2017-11-15T13:47:26.619Z,8.80
2017-11-15T13:49:54.088Z,8.90
2017-11-15T13:52:21.663Z,8.90
2017-11-15T13:54:50.039Z,8.90
2017-11-15T13:57:18.316Z,9.00
2017-11-15T13:59:46.547Z,8.90
2017-11-15T14:02:14.152Z,8.90
2017-11-15T14:04:42.547Z,9.10
2017-11-15T14:07:10.030Z,9.10
2017-11-15T14:09:37.740Z,9.10
2017-11-15T14:12:05.215Z,9.10
2017-11-15T14:14:33.676Z,9.00
2017-11-15T14:17:01.312Z,9.00
2017-11-15T14:19:28.895Z,9.00
2017-11-15T14:21:56.431Z,9.00
2017-11-15T14:24:24.079Z,9.10
2017-11-15T14:26:51.745Z,9.10
2017-11-15T14:29:19.207Z,9.10
2017-11-15T14:31:46.786Z,9.10
2017-11-15T14:34:14.247Z,9.20
2017-11-15T14:36:41.879Z,9.30
2017-11-15T14:39:09.359Z,9.30
2017-11-15T14:41:36.834Z,9.30
2017-11-15T14:44:05.071Z,9.40
2017-11-15T14:46:32.564Z,9.40
2017-11-15T14:49:00.989Z,9.30
2017-11-15T14:51:28.570Z,9.30
2017-11-15T14:53:56.167Z,9.20
2017-11-15T14:56:23.781Z,9.20
2017-11-15T14:58:51.304Z,9.20
2017-11-15T15:01:18.768Z,9.10
2017-11-15T15:03:46.241Z,9.20
2017-11-15T15:06:13.768Z,9.20
2017-11-15T15:08:41.312Z,9.30
2017-11-15T15:11:09.562Z,9.40
2017-11-15T15:13:37.052Z,9.40
2017-11-15T15:16:05.310Z,9.40
2017-11-15T15:18:32.799Z,9.40
2017-11-15T15:21:00.388Z,9.40
2017-11-15T15:23:28.251Z,9.40
2017-11-15T15:25:55.724Z,9.50
2017-11-15T15:28:23.437Z,9.50
2017-11-15T15:30:51.790Z,9.50
2017-11-15T15:33:19.298Z,9.50
2017-11-15T15:35:47.188Z,9.40
2017-11-15T15:38:14.681Z,9.40
2017-11-15T15:40:43.085Z,9.40
2017-11-15T15:43:10.621Z,9.30
2017-11-15T15:45:39.045Z,9.20
2017-11-15T15:48:06.658Z,9.20
2017-11-15T15:50:34.920Z,9.20
2017-11-15T15:53:02.380Z,9.20
2017-11-15T15:55:29.867Z,9.30
2017-11-15T15:57:57.588Z,9.20
2017-11-15T16:00:25.184Z,9.20
2017-11-15T16:02:53.406Z,9.20
2017-11-15T16:05:20.906Z,9.20
2017-11-15T16:07:49.146Z,9.30
2017-11-15T16:10:16.664Z,9.30
2017-11-15T16:15:18.183Z,9.30
2017-11-15T16:17:45.683Z,9.40
2017-11-15T16:20:13.359Z,9.40
2017-11-15T16:22:40.820Z,9.40
2017-11-15T16:25:08.348Z,9.50
2017-11-15T16:27:36.593Z,9.50
2017-11-15T16:30:04.174Z,9.50
2017-11-15T16:32:32.494Z,9.50
2017-11-15T16:35:00.195Z,9.50
2017-11-15T16:37:27.748Z,9.50
2017-11-15T16:39:55.227Z,9.50
2017-11-15T16:42:23.763Z,9.60
2017-11-15T16:44:51.277Z,9.60
2017-11-15T16:47:19.515Z,9.50
2017-11-15T16:49:47.226Z,9.50
2017-11-15T16:52:14.771Z,9.50
2017-11-15T16:54:43.155Z,9.30
2017-11-15T16:57:10.647Z,9.30
2017-11-15T16:59:38.289Z,9.20
2017-11-15T17:02:05.769Z,9.20
2017-11-15T17:04:33.252Z,9.30
2017-11-15T17:07:00.742Z,9.30
2017-11-15T17:09:28.408Z,9.20
2017-11-15T17:11:56.684Z,9.20
2017-11-15T17:14:24.497Z,9.20
2017-11-15T17:16:52.107Z,9.20
2017-11-15T17:19:20.493Z,9.10
2017-11-15T17:21:47.977Z,9.10
2017-11-15T17:24:15.602Z,9.10
2017-11-15T17:26:43.238Z,9.10
2017-11-15T17:29:10.730Z,9.10
2017-11-15T17:31:38.256Z,9.10
2017-11-15T17:34:06.495Z,9.20
2017-11-15T17:36:33.967Z,9.10
2017-11-15T17:39:01.443Z,9.10
2017-11-15T17:41:28.936Z,9.00
2017-11-15T17:43:56.521Z,9.10
2017-11-15T17:46:24.460Z,9.20
2017-11-15T17:48:51.926Z,9.30
2017-11-15T17:51:19.642Z,9.30
2017-11-15T17:53:47.168Z,9.30
2017-11-15T17:56:14.630Z,9.30
2017-11-15T17:58:42.111Z,9.20
2017-11-15T18:01:09.587Z,9.20
2017-11-15T18:03:37.840Z,9.20
2017-11-15T18:06:05.349Z,9.20
2017-11-15T18:08:32.958Z,9.20
2017-11-15T18:11:00.587Z,9.20
2017-11-15T18:13:28.051Z,9.30
2017-11-15T18:15:55.574Z,9.30
2017-11-15T18:18:23.048Z,9.20
2017-11-15T18:20:50.518Z,9.30
2017-11-15T18:23:18.011Z,9.30
2017-11-15T18:25:45.582Z,9.30
2017-11-15T18:28:13.058Z,9.40
2017-11-15T18:30:40.622Z,9.40
2017-11-15T18:33:08.293Z,9.40
2017-11-15T18:35:36.512Z,9.40
2017-11-15T18:38:04.002Z,9.40
2017-11-15T18:40:32.243Z,9.40
2017-11-15T18:42:59.714Z,9.30
2017-11-15T18:45:27.952Z,9.40
2017-11-15T18:47:55.448Z,9.40
2017-11-15T18:50:23.090Z,9.30
2017-11-15T18:52:50.726Z,9.20
2017-11-15T18:55:18.237Z,9.20
2017-11-15T18:57:46.466Z,9.20
2017-11-15T19:00:13.952Z,9.20
2017-11-15T19:02:41.620Z,9.20
2017-11-15T19:05:09.998Z,9.20
2017-11-15T19:07:37.456Z,9.10
2017-11-15T19:10:04.931Z,9.20
2017-11-15T19:12:33.198Z,9.20
2017-11-15T19:15:01.563Z,9.20
2017-11-15T19:17:29.861Z,9.30
2017-11-15T19:19:58.214Z,9.30
2017-11-15T19:22:25.789Z,9.30
2017-11-15T19:24:54.030Z,9.30
2017-11-15T19:27:21.528Z,9.40
2017-11-15T19:29:49.765Z,9.50
2017-11-15T19:32:17.233Z,9.50
2017-11-15T19:34:44.802Z,9.50
2017-11-15T19:37:13.059Z,9.50
2017-11-15T19:39:40.709Z,9.40
2017-11-15T19:42:08.299Z,9.60
2017-11-15T19:44:35.810Z,9.60
2017-11-15T19:47:03.275Z,9.70
2017-11-15T19:49:31.348Z,9.70
2017-11-15T19:51:58.889Z,9.70
2017-11-15T19:54:26.768Z,9.70
2017-11-15T19:56:54.237Z,9.70
2017-11-15T19:59:21.853Z,9.70
2017-11-15T20:01:49.346Z,9.60
2017-11-15T20:04:16.822Z,9.60
2017-11-15T20:06:44.310Z,9.60
2017-11-15T20:09:12.762Z,9.60
2017-11-15T20:11:41.046Z,9.50
2017-11-15T20:14:08.696Z,9.50
2017-11-15T20:16:36.187Z,9.40
2017-11-15T20:19:03.718Z,9.40
2017-11-15T20:21:31.992Z,9.50
2017-11-15T20:23:59.586Z,9.50
2017-11-15T20:26:27.841Z,9.50
2017-11-15T20:28:56.145Z,9.50
2017-11-15T20:31:23.660Z,9.50
2017-11-15T20:33:51.150Z,9.40
2017-11-15T20:36:19.389Z,9.40
2017-11-15T20:38:46.968Z,9.40
2017-11-15T20:41:14.604Z,9.40
2017-11-15T20:43:42.154Z,9.40
2017-11-15T20:46:09.759Z,9.30
2017-11-15T20:48:38.171Z,9.40
2017-11-15T20:51:05.679Z,9.40
2017-11-15T20:53:33.275Z,9.40
2017-11-15T20:56:00.758Z,9.40
2017-11-15T20:58:28.275Z,9.40
2017-11-15T21:00:56.557Z,9.20
2017-11-15T21:03:24.107Z,9.20
2017-11-15T21:05:52.568Z,9.30
2017-11-15T21:08:20.175Z,9.30
2017-11-15T21:10:47.700Z,9.40
2017-11-15T21:13:17.017Z,9.40
2017-11-15T21:15:45.301Z,9.50
2017-11-15T21:18:12.797Z,9.50
2017-11-15T21:20:40.263Z,9.50
2017-11-15T21:23:07.890Z,9.50
2017-11-15T21:25:35.472Z,9.40
2017-11-15T21:28:03.158Z,9.30
2017-11-15T21:30:30.625Z,9.20
2017-11-15T21:32:59.021Z,9.10
2017-11-15T21:35:27.286Z,9.20
2017-11-15T21:37:55.563Z,9.20
2017-11-15T21:40:24.007Z,9.20
2017-11-15T21:42:51.497Z,9.20
2017-11-15T21:45:19.762Z,9.20
2017-11-15T21:47:47.279Z,9.20
2017-11-15T21:50:14.798Z,9.20
2017-11-15T21:52:43.433Z,9.20
2017-11-15T21:55:11.085Z,9.20
2017-11-15T21:57:38.571Z,9.20
2017-11-15T22:00:06.400Z,9.20
2017-11-15T22:02:34.019Z,9.20
2017-11-15T22:05:02.294Z,9.30
2017-11-15T22:07:29.763Z,9.30
2017-11-15T22:09:57.996Z,9.20
2017-11-15T22:12:25.491Z,9.20
2017-11-15T22:17:59.998Z,9.20
2017-11-15T22:20:27.851Z,9.40
2017-11-15T22:22:56.163Z,9.40
2017-11-15T22:25:24.561Z,9.40
2017-11-15T22:27:52.864Z,9.40
2017-11-15T22:30:21.097Z,9.30
2017-11-15T22:32:50.082Z,9.50
2017-11-15T22:35:24.248Z,9.40
2017-11-15T22:37:53.151Z,9.40
2017-11-15T22:40:21.225Z,9.50
2017-11-15T22:42:54.062Z,9.60
2017-11-15T22:45:21.688Z,9.50
2017-11-15T22:47:49.162Z,9.50
2017-11-15T22:50:17.410Z,9.40
2017-11-15T22:52:49.465Z,9.40
2017-11-15T22:55:17.766Z,9.30
2017-11-15T22:57:45.363Z,9.30
2017-11-15T23:00:12.847Z,9.40
2017-11-15T23:02:40.454Z,9.40
2017-11-15T23:05:09.509Z,9.30
2017-11-15T23:07:40.801Z,9.30
2017-11-15T23:10:13.176Z,9.30
2017-11-15T23:12:41.690Z,9.30
2017-11-15T23:15:09.289Z,9.30
2017-11-15T23:17:36.876Z,9.30
2017-11-15T23:20:06.347Z,9.30
2017-11-15T23:22:34.036Z,9.30
2017-11-15T23:25:03.206Z,9.30
2017-11-15T23:27:30.681Z,9.30
2017-11-15T23:29:58.291Z,9.30
2017-11-15T23:32:25.758Z,9.30
2017-11-15T23:34:53.234Z,9.30
2017-11-15T23:37:20.704Z,9.40
2017-11-15T23:39:48.157Z,9.40
2017-11-15T23:42:15.627Z,9.40
2017-11-15T23:44:43.861Z,9.40
2017-11-15T23:47:11.345Z,9.40
2017-11-15T23:49:38.836Z,9.40
2017-11-15T23:52:07.066Z,9.40
2017-11-15T23:54:34.622Z,9.40
2017-11-15T23:57:02.252Z,9.40
2017-11-15T23:59:29.764Z,9.40
